sensor_id;sensor_type;location;lat;lon;timestamp;pressure;altitude;pressure_sealevel;temperature;humidity
27040;BME280;14589;51.578;7.306;2023-05-03T04:02:41;102360.28;;;1.93;84.86
27040;BME280;14589;51.578;7.306;2023-05-03T04:05:18;102368.09;;;1.99;84.70
27040;BME280;14589;51.578;7.306;2023-05-03T04:07:49;102361.00;;;1.98;84.88
27040;BME280;14589;51.578;7.306;2023-05-03T04:10:22;102362.78;;;1.98;84.33
27040;BME280;14589;51.578;7.306;2023-05-03T04:12:52;102363.78;;;1.95;84.85
27040;BME280;14589;51.578;7.306;2023-05-03T04:15:23;102353.09;;;1.95;84.85
27040;BME280;14589;51.578;7.306;2023-05-03T04:17:54;102358.41;;;1.97;84.48
27040;BME280;14589;51.578;7.306;2023-05-03T04:20:25;102351.25;;;1.97;84.20
27040;BME280;14589;51.578;7.306;2023-05-03T04:22:57;102358.41;;;1.97;85.09
27040;BME280;14589;51.578;7.306;2023-05-03T04:25:31;102352.31;;;1.92;84.62
27040;BME280;14589;51.578;7.306;2023-05-03T04:28:07;102351.44;;;1.91;85.06
27040;BME280;14589;51.578;7.306;2023-05-03T04:30:41;102345.16;;;1.92;85.12
27040;BME280;14589;51.578;7.306;2023-05-03T04:33:13;102346.00;;;1.94;85.38
27040;BME280;14589;51.578;7.306;2023-05-03T04:35:51;102347.69;;;1.97;85.81
27040;BME280;14589;51.578;7.306;2023-05-03T04:38:22;102353.81;;;2.00;85.57
27040;BME280;14589;51.578;7.306;2023-05-03T04:40:53;102349.28;;;2.02;85.68
27040;BME280;14589;51.578;7.306;2023-05-03T04:43:24;102357.19;;;2.06;85.77
27040;BME280;14589;51.578;7.306;2023-05-03T04:45:54;102366.75;;;2.13;85.76
27040;BME280;14589;51.578;7.306;2023-05-03T04:48:28;102374.47;;;2.22;85.65
27040;BME280;14589;51.578;7.306;2023-05-03T04:50:59;102366.22;;;2.28;85.09
27040;BME280;14589;51.578;7.306;2023-05-03T04:53:30;102372.91;;;2.39;85.07
27040;BME280;14589;51.578;7.306;2023-05-03T04:56:10;102380.59;;;2.49;84.97
27040;BME280;14589;51.578;7.306;2023-05-03T04:58:42;102379.22;;;2.62;84.94
27040;BME280;14589;51.578;7.306;2023-05-03T05:01:15;102382.53;;;2.68;84.71
27040;BME280;14589;51.578;7.306;2023-05-03T05:03:46;102387.66;;;2.74;84.60
27040;BME280;14589;51.578;7.306;2023-05-03T05:06:22;102394.28;;;2.88;84.71
27040;BME280;14589;51.578;7.306;2023-05-03T05:08:53;102393.88;;;2.98;84.21
27040;BME280;14589;51.578;7.306;2023-05-03T05:11:23;102398.69;;;3.12;84.26
27040;BME280;14589;51.578;7.306;2023-05-03T05:13:54;102405.44;;;3.22;84.29
27040;BME280;14589;51.578;7.306;2023-05-03T05:16:26;102397.66;;;3.38;84.06
27040;BME280;14589;51.578;7.306;2023-05-03T05:18:57;102394.53;;;3.48;84.14
27040;BME280;14589;51.578;7.306;2023-05-03T05:21:30;102383.50;;;3.56;83.68
27040;BME280;14589;51.578;7.306;2023-05-03T05:24:01;102398.31;;;3.64;83.71
27040;BME280;14589;51.578;7.306;2023-05-03T05:26:32;102401.38;;;3.77;83.46
27040;BME280;14589;51.578;7.306;2023-05-03T05:29:03;102416.91;;;3.91;84.09
27040;BME280;14589;51.578;7.306;2023-05-03T05:31:33;102412.97;;;4.20;84.50
27040;BME280;14589;51.578;7.306;2023-05-03T05:34:05;102414.22;;;4.52;83.67
27040;BME280;14589;51.578;7.306;2023-05-03T05:36:35;102419.31;;;4.78;83.49
27040;BME280;14589;51.578;7.306;2023-05-03T05:39:07;102403.56;;;4.89;82.27
27040;BME280;14589;51.578;7.306;2023-05-03T05:41:37;102407.78;;;5.13;81.78
27040;BME280;14589;51.578;7.306;2023-05-03T05:44:08;102415.72;;;5.16;81.09
27040;BME280;14589;51.578;7.306;2023-05-03T05:46:38;102420.88;;;5.21;81.05
27040;BME280;14589;51.578;7.306;2023-05-03T05:49:09;102434.38;;;5.19;81.02
27040;BME280;14589;51.578;7.306;2023-05-03T05:51:39;102430.63;;;5.23;81.31
27040;BME280;14589;51.578;7.306;2023-05-03T05:54:11;102435.69;;;5.29;81.19
27040;BME280;14589;51.578;7.306;2023-05-03T05:56:42;102434.59;;;5.34;80.89
27040;BME280;14589;51.578;7.306;2023-05-03T05:59:12;102434.53;;;5.35;81.13
27040;BME280;14589;51.578;7.306;2023-05-03T06:01:43;102438.88;;;5.38;80.96
27040;BME280;14589;51.578;7.306;2023-05-03T06:04:16;102448.47;;;5.43;80.89
27040;BME280;14589;51.578;7.306;2023-05-03T06:06:47;102429.44;;;5.48;81.08
27040;BME280;14589;51.578;7.306;2023-05-03T06:09:17;102440.91;;;5.51;81.21
27040;BME280;14589;51.578;7.306;2023-05-03T06:11:48;102440.53;;;5.59;81.09
27040;BME280;14589;51.578;7.306;2023-05-03T06:14:19;102446.44;;;5.67;81.27
27040;BME280;14589;51.578;7.306;2023-05-03T06:16:51;102448.34;;;5.82;81.04
27040;BME280;14589;51.578;7.306;2023-05-03T06:19:21;102448.41;;;5.99;80.51
27040;BME280;14589;51.578;7.306;2023-05-03T06:21:53;102449.47;;;6.14;80.28
27040;BME280;14589;51.578;7.306;2023-05-03T06:24:24;102439.56;;;6.32;79.91
27040;BME280;14589;51.578;7.306;2023-05-03T06:27:00;102447.63;;;6.49;79.07
27040;BME280;14589;51.578;7.306;2023-05-03T06:29:32;102432.41;;;6.65;77.89
27040;BME280;14589;51.578;7.306;2023-05-03T06:32:02;102447.88;;;6.95;77.85
27040;BME280;14589;51.578;7.306;2023-05-03T06:34:34;102454.50;;;7.05;76.76
27040;BME280;14589;51.578;7.306;2023-05-03T06:37:04;102448.97;;;7.23;76.06
27040;BME280;14589;51.578;7.306;2023-05-03T06:39:35;102449.69;;;7.43;74.44
27040;BME280;14589;51.578;7.306;2023-05-03T06:42:05;102445.28;;;7.57;73.88
27040;BME280;14589;51.578;7.306;2023-05-03T06:44:41;102446.72;;;7.79;72.89
27040;BME280;14589;51.578;7.306;2023-05-03T06:47:11;102445.06;;;7.92;71.76
27040;BME280;14589;51.578;7.306;2023-05-03T06:49:42;102439.81;;;8.04;70.55
27040;BME280;14589;51.578;7.306;2023-05-03T06:52:12;102442.00;;;8.28;70.96
27040;BME280;14589;51.578;7.306;2023-05-03T06:54:42;102438.72;;;8.52;69.60
27040;BME280;14589;51.578;7.306;2023-05-03T06:57:13;102432.66;;;8.77;69.43
27040;BME280;14589;51.578;7.306;2023-05-03T06:59:43;102438.59;;;8.98;68.32
27040;BME280;14589;51.578;7.306;2023-05-03T07:02:14;102436.66;;;9.00;65.03
27040;BME280;14589;51.578;7.306;2023-05-03T07:04:44;102424.50;;;9.07;63.10
27040;BME280;14589;51.578;7.306;2023-05-03T07:07:14;102433.94;;;9.14;61.62
27040;BME280;14589;51.578;7.306;2023-05-03T07:09:45;102434.09;;;9.40;61.64
27040;BME280;14589;51.578;7.306;2023-05-03T07:12:15;102422.75;;;9.61;60.71
27040;BME280;14589;51.578;7.306;2023-05-03T07:14:46;102426.72;;;9.56;57.98
27040;BME280;14589;51.578;7.306;2023-05-03T07:17:16;102430.22;;;9.85;59.49
27040;BME280;14589;51.578;7.306;2023-05-03T07:19:48;102435.47;;;10.00;58.71
27040;BME280;14589;51.578;7.306;2023-05-03T07:22:18;102429.88;;;10.16;55.77
27040;BME280;14589;51.578;7.306;2023-05-03T07:24:54;102432.44;;;10.32;54.51
27040;BME280;14589;51.578;7.306;2023-05-03T07:27:26;102433.22;;;10.46;55.00
27040;BME280;14589;51.578;7.306;2023-05-03T07:29:56;102429.09;;;10.41;54.40
27040;BME280;14589;51.578;7.306;2023-05-03T07:32:27;102434.22;;;10.58;54.65
27040;BME280;14589;51.578;7.306;2023-05-03T07:34:57;102416.97;;;10.84;55.11
27040;BME280;14589;51.578;7.306;2023-05-03T07:37:27;102425.19;;;11.21;54.21
27040;BME280;14589;51.578;7.306;2023-05-03T07:39:58;102427.59;;;10.87;51.49
27040;BME280;14589;51.578;7.306;2023-05-03T07:42:28;102420.44;;;10.99;49.99
27040;BME280;14589;51.578;7.306;2023-05-03T07:44:58;102409.78;;;11.09;51.21
27040;BME280;14589;51.578;7.306;2023-05-03T07:47:30;102406.66;;;11.02;50.78
27040;BME280;14589;51.578;7.306;2023-05-03T07:50:01;102405.56;;;11.05;50.03
27040;BME280;14589;51.578;7.306;2023-05-03T07:52:35;102392.78;;;11.30;49.57
27040;BME280;14589;51.578;7.306;2023-05-03T07:55:06;102400.09;;;11.66;50.18
27040;BME280;14589;51.578;7.306;2023-05-03T07:57:37;102402.25;;;11.74;49.94
27040;BME280;14589;51.578;7.306;2023-05-03T08:00:07;102386.63;;;11.89;48.99
27040;BME280;14589;51.578;7.306;2023-05-03T08:02:42;102385.19;;;11.96;47.46
27040;BME280;14589;51.578;7.306;2023-05-03T08:05:13;102408.06;;;11.81;48.09
27040;BME280;14589;51.578;7.306;2023-05-03T08:07:43;102385.03;;;11.97;47.16
27040;BME280;14589;51.578;7.306;2023-05-03T08:10:14;102388.16;;;12.04;47.02
27040;BME280;14589;51.578;7.306;2023-05-03T08:12:44;102391.72;;;12.28;46.51
27040;BME280;14589;51.578;7.306;2023-05-03T08:15:15;102393.34;;;12.42;46.62
27040;BME280;14589;51.578;7.306;2023-05-03T08:17:45;102392.16;;;12.46;45.12
27040;BME280;14589;51.578;7.306;2023-05-03T08:20:16;102389.25;;;12.82;45.78
27040;BME280;14589;51.578;7.306;2023-05-03T08:22:46;102399.25;;;12.71;44.79
27040;BME280;14589;51.578;7.306;2023-05-03T08:25:16;102387.38;;;12.83;45.91
27040;BME280;14589;51.578;7.306;2023-05-03T08:27:48;102396.31;;;13.07;45.75
27040;BME280;14589;51.578;7.306;2023-05-03T08:30:19;102388.88;;;13.43;44.93
27040;BME280;14589;51.578;7.306;2023-05-03T08:32:51;102371.53;;;13.87;42.44
27040;BME280;14589;51.578;7.306;2023-05-03T08:35:21;102361.69;;;13.63;42.17
27040;BME280;14589;51.578;7.306;2023-05-03T08:37:51;102366.09;;;13.32;43.01
27040;BME280;14589;51.578;7.306;2023-05-03T08:40:22;102379.72;;;12.99;43.88
27040;BME280;14589;51.578;7.306;2023-05-03T08:42:54;102384.28;;;12.98;44.18
27040;BME280;14589;51.578;7.306;2023-05-03T08:45:25;102388.25;;;13.28;43.51
27040;BME280;14589;51.578;7.306;2023-05-03T08:47:55;102398.47;;;13.58;43.16
27040;BME280;14589;51.578;7.306;2023-05-03T08:50:26;102379.09;;;12.95;44.46
27040;BME280;14589;51.578;7.306;2023-05-03T08:52:58;102395.31;;;13.42;43.32
27040;BME280;14589;51.578;7.306;2023-05-03T08:55:28;102380.94;;;12.95;44.13
27040;BME280;14589;51.578;7.306;2023-05-03T08:57:59;102384.03;;;12.90;43.92
27040;BME280;14589;51.578;7.306;2023-05-03T09:00:29;102391.84;;;13.28;44.00
27040;BME280;14589;51.578;7.306;2023-05-03T09:03:00;102380.22;;;13.26;43.12
27040;BME280;14589;51.578;7.306;2023-05-03T09:05:31;102374.97;;;13.57;42.17
27040;BME280;14589;51.578;7.306;2023-05-03T09:08:05;102360.88;;;13.41;42.38
27040;BME280;14589;51.578;7.306;2023-05-03T09:10:38;102365.50;;;13.72;42.79
27040;BME280;14589;51.578;7.306;2023-05-03T09:13:09;102369.38;;;13.90;42.72
27040;BME280;14589;51.578;7.306;2023-05-03T09:15:39;102362.34;;;14.08;41.32
27040;BME280;14589;51.578;7.306;2023-05-03T09:18:18;102366.22;;;14.27;41.00
27040;BME280;14589;51.578;7.306;2023-05-03T09:20:50;102365.53;;;14.25;40.90
27040;BME280;14589;51.578;7.306;2023-05-03T09:26:00;102360.72;;;14.58;40.76
27040;BME280;14589;51.578;7.306;2023-05-03T09:28:40;102347.31;;;14.76;39.76
27040;BME280;14589;51.578;7.306;2023-05-03T09:31:11;102361.13;;;15.05;40.07
27040;BME280;14589;51.578;7.306;2023-05-03T09:33:41;102355.81;;;14.83;39.55
27040;BME280;14589;51.578;7.306;2023-05-03T09:36:11;102344.31;;;15.19;39.88
27040;BME280;14589;51.578;7.306;2023-05-03T09:38:42;102352.22;;;15.62;38.57
27040;BME280;14589;51.578;7.306;2023-05-03T09:41:12;102356.78;;;15.43;37.76
27040;BME280;14589;51.578;7.306;2023-05-03T09:43:50;102346.75;;;15.53;37.57
27040;BME280;14589;51.578;7.306;2023-05-03T09:46:22;102354.56;;;15.67;36.55
27040;BME280;14589;51.578;7.306;2023-05-03T09:48:58;102336.69;;;15.72;37.04
27040;BME280;14589;51.578;7.306;2023-05-03T09:51:30;102342.75;;;15.66;36.35
27040;BME280;14589;51.578;7.306;2023-05-03T09:54:03;102334.13;;;15.90;36.96
27040;BME280;14589;51.578;7.306;2023-05-03T09:56:35;102335.97;;;16.09;36.44
27040;BME280;14589;51.578;7.306;2023-05-03T09:59:06;102332.78;;;16.33;36.44
27040;BME280;14589;51.578;7.306;2023-05-03T10:01:39;102333.13;;;16.67;36.01
27040;BME280;14589;51.578;7.306;2023-05-03T10:04:10;102335.31;;;17.00;35.92
27040;BME280;14589;51.578;7.306;2023-05-03T10:06:41;102329.63;;;16.84;35.99
27040;BME280;14589;51.578;7.306;2023-05-03T10:09:18;102332.44;;;16.65;35.59
27040;BME280;14589;51.578;7.306;2023-05-03T10:11:52;102320.78;;;16.43;35.23
27040;BME280;14589;51.578;7.306;2023-05-03T10:14:23;102330.25;;;16.78;35.36
27040;BME280;14589;51.578;7.306;2023-05-03T10:17:03;102321.25;;;16.85;34.17
27040;BME280;14589;51.578;7.306;2023-05-03T10:19:56;102299.75;;;16.90;34.60
27040;BME280;14589;51.578;7.306;2023-05-03T10:22:30;102307.44;;;17.32;35.74
27040;BME280;14589;51.578;7.306;2023-05-03T10:30:30;102303.34;;;17.81;33.04
27040;BME280;14589;51.578;7.306;2023-05-03T10:35:58;102296.00;;;17.36;33.53
27040;BME280;14589;51.578;7.306;2023-05-03T10:38:35;102288.88;;;17.71;34.16
27040;BME280;14589;51.578;7.306;2023-05-03T10:41:06;102284.00;;;17.65;34.55
27040;BME280;14589;51.578;7.306;2023-05-03T10:43:40;102297.63;;;18.36;33.78
27040;BME280;14589;51.578;7.306;2023-05-03T10:46:29;102295.19;;;18.84;32.59
27040;BME280;14589;51.578;7.306;2023-05-03T10:49:20;102288.38;;;18.63;32.25
27040;BME280;14589;51.578;7.306;2023-05-03T10:51:51;102295.13;;;18.25;32.41
27040;BME280;14589;51.578;7.306;2023-05-03T10:54:21;102288.38;;;18.63;32.23
27040;BME280;14589;51.578;7.306;2023-05-03T10:56:54;102290.78;;;18.40;32.86
27040;BME280;14589;51.578;7.306;2023-05-03T10:59:45;102293.19;;;18.61;32.33
27040;BME280;14589;51.578;7.306;2023-05-03T11:02:20;102288.94;;;18.48;31.79
27040;BME280;14589;51.578;7.306;2023-05-03T11:04:55;102289.16;;;18.81;33.26
27040;BME280;14589;51.578;7.306;2023-05-03T11:07:28;102284.31;;;18.75;31.50
27040;BME280;14589;51.578;7.306;2023-05-03T11:10:00;102269.44;;;18.85;31.35
27040;BME280;14589;51.578;7.306;2023-05-03T11:12:30;102271.03;;;18.62;32.01
27040;BME280;14589;51.578;7.306;2023-05-03T11:15:00;102273.44;;;18.99;31.00
27040;BME280;14589;51.578;7.306;2023-05-03T11:17:31;102266.06;;;19.90;30.28
27040;BME280;14589;51.578;7.306;2023-05-03T11:20:02;102255.06;;;19.90;30.22
27040;BME280;14589;51.578;7.306;2023-05-03T11:22:34;102257.47;;;19.85;30.01
27040;BME280;14589;51.578;7.306;2023-05-03T11:25:05;102251.00;;;19.28;30.17
27040;BME280;14589;51.578;7.306;2023-05-03T11:27:35;102238.00;;;19.70;30.09
27040;BME280;14589;51.578;7.306;2023-05-03T11:30:07;102240.56;;;20.20;29.74
27040;BME280;14589;51.578;7.306;2023-05-03T11:32:38;102236.34;;;20.65;28.26
27040;BME280;14589;51.578;7.306;2023-05-03T11:35:09;102236.28;;;20.34;27.52
27040;BME280;14589;51.578;7.306;2023-05-03T11:37:41;102249.59;;;20.62;27.80
27040;BME280;14589;51.578;7.306;2023-05-03T11:40:15;102237.84;;;20.04;28.27
27040;BME280;14589;51.578;7.306;2023-05-03T11:42:57;102250.75;;;19.88;29.15
27040;BME280;14589;51.578;7.306;2023-05-03T11:45:31;102247.97;;;20.20;28.26
27040;BME280;14589;51.578;7.306;2023-05-03T11:48:02;102243.69;;;20.81;30.02
27040;BME280;14589;51.578;7.306;2023-05-03T11:51:06;102240.72;;;20.43;27.20
27040;BME280;14589;51.578;7.306;2023-05-03T11:53:46;102245.94;;;19.82;27.50
27040;BME280;14589;51.578;7.306;2023-05-03T11:56:18;102245.56;;;20.01;28.82
27040;BME280;14589;51.578;7.306;2023-05-03T12:01:28;102238.56;;;21.85;27.27
27040;BME280;14589;51.578;7.306;2023-05-03T12:04:00;102239.66;;;21.30;26.16
27040;BME280;14589;51.578;7.306;2023-05-03T12:06:32;102243.19;;;21.70;26.52
27040;BME280;14589;51.578;7.306;2023-05-03T12:09:12;102242.69;;;21.05;26.47
27040;BME280;14589;51.578;7.306;2023-05-03T12:11:43;102234.03;;;20.85;26.41
27040;BME280;14589;51.578;7.306;2023-05-03T12:14:17;102222.06;;;21.31;26.06
27040;BME280;14589;51.578;7.306;2023-05-03T12:16:50;102216.50;;;21.09;25.68
27040;BME280;14589;51.578;7.306;2023-05-03T12:19:25;102232.09;;;21.24;25.09
27040;BME280;14589;51.578;7.306;2023-05-03T12:21:56;102222.72;;;21.42;24.93
27040;BME280;14589;51.578;7.306;2023-05-03T12:24:27;102225.00;;;21.75;26.01
27040;BME280;14589;51.578;7.306;2023-05-03T12:26:57;102221.44;;;21.67;25.46
27040;BME280;14589;51.578;7.306;2023-05-03T12:29:28;102215.72;;;20.92;25.63
27040;BME280;14589;51.578;7.306;2023-05-03T12:32:00;102218.75;;;21.05;25.36
27040;BME280;14589;51.578;7.306;2023-05-03T12:34:32;102215.34;;;20.95;25.47
27040;BME280;14589;51.578;7.306;2023-05-03T12:37:02;102212.56;;;21.57;25.22
27040;BME280;14589;51.578;7.306;2023-05-03T12:39:33;102203.34;;;22.83;24.03
27040;BME280;14589;51.578;7.306;2023-05-03T12:42:03;102213.88;;;22.06;26.00
27040;BME280;14589;51.578;7.306;2023-05-03T12:44:36;102217.28;;;22.46;26.39
27040;BME280;14589;51.578;7.306;2023-05-03T12:47:07;102214.59;;;22.38;25.54
27040;BME280;14589;51.578;7.306;2023-05-03T12:49:37;102185.41;;;22.79;25.65
27040;BME280;14589;51.578;7.306;2023-05-03T12:52:11;102182.59;;;23.30;25.18
27040;BME280;14589;51.578;7.306;2023-05-03T12:54:42;102177.09;;;23.51;24.08
27040;BME280;14589;51.578;7.306;2023-05-03T12:57:12;102180.31;;;23.55;24.73
27040;BME280;14589;51.578;7.306;2023-05-03T12:59:43;102175.69;;;23.62;24.36
27040;BME280;14589;51.578;7.306;2023-05-03T13:02:15;102171.56;;;23.15;24.59
27040;BME280;14589;51.578;7.306;2023-05-03T13:04:47;102165.84;;;23.38;24.82
27040;BME280;14589;51.578;7.306;2023-05-03T13:07:27;102177.09;;;22.35;25.60
27040;BME280;14589;51.578;7.306;2023-05-03T13:09:58;102172.16;;;22.31;24.97
27040;BME280;14589;51.578;7.306;2023-05-03T13:12:28;102162.53;;;22.27;25.70
27040;BME280;14589;51.578;7.306;2023-05-03T13:15:00;102157.22;;;22.90;25.33
27040;BME280;14589;51.578;7.306;2023-05-03T13:17:34;102138.16;;;23.38;25.30
27040;BME280;14589;51.578;7.306;2023-05-03T13:20:05;102149.00;;;22.97;25.85
27040;BME280;14589;51.578;7.306;2023-05-03T13:22:37;102151.34;;;22.79;25.17
27040;BME280;14589;51.578;7.306;2023-05-03T13:25:08;102137.56;;;23.00;25.08
27040;BME280;14589;51.578;7.306;2023-05-03T13:27:38;102126.63;;;23.34;24.51
27040;BME280;14589;51.578;7.306;2023-05-03T13:30:09;102126.88;;;22.32;25.85
27040;BME280;14589;51.578;7.306;2023-05-03T13:32:39;102129.03;;;21.92;25.71
27040;BME280;14589;51.578;7.306;2023-05-03T13:35:10;102112.19;;;22.16;25.28
27040;BME280;14589;51.578;7.306;2023-05-03T13:37:41;102110.78;;;22.21;25.13
27040;BME280;14589;51.578;7.306;2023-05-03T13:40:11;102109.78;;;22.57;25.31
27040;BME280;14589;51.578;7.306;2023-05-03T13:42:43;102115.59;;;22.48;25.31
27040;BME280;14589;51.578;7.306;2023-05-03T13:45:14;102103.59;;;22.55;25.48
27040;BME280;14589;51.578;7.306;2023-05-03T13:47:44;102100.06;;;22.76;25.10
27040;BME280;14589;51.578;7.306;2023-05-03T13:50:15;102081.81;;;23.73;26.12
27040;BME280;14589;51.578;7.306;2023-05-03T13:52:45;102081.34;;;23.98;23.85
27040;BME280;14589;51.578;7.306;2023-05-03T13:55:15;102087.53;;;24.34;23.50
27040;BME280;14589;51.578;7.306;2023-05-03T13:57:46;102086.75;;;24.53;22.26
27040;BME280;14589;51.578;7.306;2023-05-03T14:00:16;102074.69;;;23.15;23.31
27040;BME280;14589;51.578;7.306;2023-05-03T14:02:49;102073.50;;;23.73;22.71
27040;BME280;14589;51.578;7.306;2023-05-03T14:05:20;102078.25;;;23.09;24.53
27040;BME280;14589;51.578;7.306;2023-05-03T14:07:51;102071.03;;;23.36;24.65
27040;BME280;14589;51.578;7.306;2023-05-03T14:10:23;102080.94;;;22.31;25.28
27040;BME280;14589;51.578;7.306;2023-05-03T14:12:53;102053.50;;;23.29;24.48
27040;BME280;14589;51.578;7.306;2023-05-03T14:15:24;102055.91;;;23.32;23.79
27040;BME280;14589;51.578;7.306;2023-05-03T14:17:54;102051.19;;;22.69;23.95
27040;BME280;14589;51.578;7.306;2023-05-03T14:20:25;102035.00;;;23.51;23.63
27040;BME280;14589;51.578;7.306;2023-05-03T14:22:55;102037.16;;;23.55;23.74
27040;BME280;14589;51.578;7.306;2023-05-03T14:25:29;102044.47;;;23.63;23.53
27040;BME280;14589;51.578;7.306;2023-05-03T14:28:00;102043.78;;;23.33;24.20
27040;BME280;14589;51.578;7.306;2023-05-03T14:30:30;102043.78;;;23.33;23.59
27040;BME280;14589;51.578;7.306;2023-05-03T14:33:02;102028.19;;;23.88;22.15
27040;BME280;14589;51.578;7.306;2023-05-03T14:35:32;102025.81;;;23.50;22.77
27040;BME280;14589;51.578;7.306;2023-05-03T14:38:03;102024.78;;;23.58;22.18
27040;BME280;14589;51.578;7.306;2023-05-03T14:40:35;102023.47;;;23.26;23.88
27040;BME280;14589;51.578;7.306;2023-05-03T14:43:06;102015.00;;;23.55;23.44
27040;BME280;14589;51.578;7.306;2023-05-03T14:45:38;102030.16;;;22.53;25.01
27040;BME280;14589;51.578;7.306;2023-05-03T14:48:08;102018.75;;;22.98;24.50
27040;BME280;14589;51.578;7.306;2023-05-03T14:50:39;102018.63;;;23.34;23.77
27040;BME280;14589;51.578;7.306;2023-05-03T14:53:09;102025.94;;;22.93;24.33
27040;BME280;14589;51.578;7.306;2023-05-03T14:55:40;102009.53;;;22.70;25.11
27040;BME280;14589;51.578;7.306;2023-05-03T14:58:10;102000.16;;;22.14;26.01
27040;BME280;14589;51.578;7.306;2023-05-03T15:00:42;102014.59;;;21.05;28.06
27040;BME280;14589;51.578;7.306;2023-05-03T15:03:12;101991.25;;;19.86;28.76
27040;BME280;14589;51.578;7.306;2023-05-03T15:05:44;102000.06;;;19.73;29.16
27040;BME280;14589;51.578;7.306;2023-05-03T15:08:17;102001.03;;;19.25;30.41
27040;BME280;14589;51.578;7.306;2023-05-03T15:10:48;102002.78;;;18.69;31.10
27040;BME280;14589;51.578;7.306;2023-05-03T15:13:18;102002.66;;;18.29;31.28
27040;BME280;14589;51.578;7.306;2023-05-03T15:15:49;101984.59;;;18.10;31.68
27040;BME280;14589;51.578;7.306;2023-05-03T15:18:19;101986.75;;;17.90;32.89
27040;BME280;14589;51.578;7.306;2023-05-03T15:20:49;101991.66;;;17.78;33.16
27040;BME280;14589;51.578;7.306;2023-05-03T15:23:20;101976.84;;;18.05;32.44
27040;BME280;14589;51.578;7.306;2023-05-03T15:25:50;101996.19;;;17.88;33.35
27040;BME280;14589;51.578;7.306;2023-05-03T15:28:21;101984.16;;;17.55;32.99
27040;BME280;14589;51.578;7.306;2023-05-03T15:30:52;101993.03;;;17.23;33.67
27040;BME280;14589;51.578;7.306;2023-05-03T15:33:22;101994.94;;;17.22;34.29
27040;BME280;14589;51.578;7.306;2023-05-03T15:35:52;101989.72;;;17.11;34.03
27040;BME280;14589;51.578;7.306;2023-05-03T15:38:24;101996.00;;;17.04;34.78
27040;BME280;14589;51.578;7.306;2023-05-03T15:40:54;101987.03;;;17.19;34.08
27040;BME280;14589;51.578;7.306;2023-05-03T15:43:25;101990.25;;;16.89;34.42
27040;BME280;14589;51.578;7.306;2023-05-03T15:45:55;101990.09;;;16.90;34.56
27040;BME280;14589;51.578;7.306;2023-05-03T15:48:26;101989.00;;;16.83;34.11
27040;BME280;14589;51.578;7.306;2023-05-03T15:50:57;101985.28;;;16.92;34.15
27040;BME280;14589;51.578;7.306;2023-05-03T15:53:28;101983.75;;;16.90;33.95
27040;BME280;14589;51.578;7.306;2023-05-03T15:55:58;101987.16;;;16.92;33.92
27040;BME280;14589;51.578;7.306;2023-05-03T15:58:29;101969.22;;;16.97;34.05
27040;BME280;14589;51.578;7.306;2023-05-03T16:01:00;101988.25;;;16.99;34.40
27040;BME280;14589;51.578;7.306;2023-05-03T16:03:30;101974.44;;;16.83;34.31
27040;BME280;14589;51.578;7.306;2023-05-03T16:06:01;101975.97;;;16.85;34.35
27040;BME280;14589;51.578;7.306;2023-05-03T16:08:32;101985.25;;;16.84;34.67
27040;BME280;14589;51.578;7.306;2023-05-03T16:11:02;101965.19;;;16.48;34.73
27040;BME280;14589;51.578;7.306;2023-05-03T16:13:32;101967.28;;;16.54;34.54
27040;BME280;14589;51.578;7.306;2023-05-03T16:16:03;101971.47;;;16.58;35.23
27040;BME280;14589;51.578;7.306;2023-05-03T16:18:33;101967.00;;;16.57;34.32
27040;BME280;14589;51.578;7.306;2023-05-03T16:21:04;101971.38;;;16.50;34.80
27040;BME280;14589;51.578;7.306;2023-05-03T16:23:34;101963.25;;;16.58;35.39
27040;BME280;14589;51.578;7.306;2023-05-03T16:26:12;101969.28;;;16.62;35.77
27040;BME280;14589;51.578;7.306;2023-05-03T16:28:43;101955.19;;;16.57;35.37
27040;BME280;14589;51.578;7.306;2023-05-03T16:31:15;101962.53;;;16.56;35.02
27040;BME280;14589;51.578;7.306;2023-05-03T16:33:48;101965.66;;;16.44;35.02
27040;BME280;14589;51.578;7.306;2023-05-03T16:36:18;101964.03;;;16.33;34.95
27040;BME280;14589;51.578;7.306;2023-05-03T16:38:49;101959.47;;;16.42;35.61
27040;BME280;14589;51.578;7.306;2023-05-03T16:41:19;101948.38;;;16.43;36.01
27040;BME280;14589;51.578;7.306;2023-05-03T16:43:50;101946.75;;;16.33;35.46
27040;BME280;14589;51.578;7.306;2023-05-03T16:46:20;101957.53;;;16.34;35.74
27040;BME280;14589;51.578;7.306;2023-05-03T16:48:51;101944.63;;;16.27;36.36
27040;BME280;14589;51.578;7.306;2023-05-03T16:51:22;101949.47;;;16.15;36.01
27040;BME280;14589;51.578;7.306;2023-05-03T16:53:53;101941.56;;;16.12;35.77
27040;BME280;14589;51.578;7.306;2023-05-03T16:56:24;101937.03;;;16.03;36.53
27040;BME280;14589;51.578;7.306;2023-05-03T16:58:54;101927.25;;;16.00;36.31
27040;BME280;14589;51.578;7.306;2023-05-03T17:01:25;101920.50;;;15.95;36.45
27040;BME280;14589;51.578;7.306;2023-05-03T17:03:56;101924.25;;;15.94;36.29
27040;BME280;14589;51.578;7.306;2023-05-03T17:06:27;101927.25;;;16.00;36.56
27040;BME280;14589;51.578;7.306;2023-05-03T17:08:57;101922.84;;;15.90;36.85
27040;BME280;14589;51.578;7.306;2023-05-03T17:11:28;101934.66;;;15.90;36.49
27040;BME280;14589;51.578;7.306;2023-05-03T17:13:58;101926.34;;;15.82;36.54
27040;BME280;14589;51.578;7.306;2023-05-03T17:16:32;101922.75;;;15.82;37.85
27040;BME280;14589;51.578;7.306;2023-05-03T17:19:02;101926.06;;;15.85;37.15
27040;BME280;14589;51.578;7.306;2023-05-03T17:21:33;101925.19;;;15.85;37.72
27040;BME280;14589;51.578;7.306;2023-05-03T17:24:03;101920.78;;;15.74;36.83
27040;BME280;14589;51.578;7.306;2023-05-03T17:26:34;101918.47;;;15.79;37.21
27040;BME280;14589;51.578;7.306;2023-05-03T17:29:04;101916.28;;;15.83;38.13
27040;BME280;14589;51.578;7.306;2023-05-03T17:31:36;101926.81;;;15.77;37.45